This is the latest recevied weather packets stored in our database for station/object KE5KUL-13. If no packets are shown the sender has not sent any weather packets the latest 10 day(s).
| Time | Temp. | Humidity | Pressure | Rain* | Wind** | Luminosity | Snow |
|---|---|---|---|---|---|---|---|
| 1777828218 | 23.33° C | 31% | 1020.9 hPa | 0 mm | - | - | - |
| 1777827618 | 22.78° C | 31% | 1021.1 hPa | 0 mm | - | - | - |
| 1777827018 | 22.22° C | 34% | 1021.4 hPa | 0 mm | - | - | - |
| 1777826418 | 22.22° C | 34% | 1021.5 hPa | 0 mm | - | - | - |
| 1777825818 | 22.22° C | 35% | 1021.6 hPa | 0 mm | - | - | - |
| 1777825218 | 21.67° C | 37% | 1021.7 hPa | 0 mm | - | - | - |
| 1777824618 | 21.67° C | 37% | 1021.7 hPa | 0 mm | - | - | - |
| 1777824018 | 21.11° C | 39% | 1021.5 hPa | 0 mm | - | - | - |
| 1777823418 | 21.11° C | 40% | 1021.7 hPa | 0 mm | - | - | - |
| 1777822818 | 20.56° C | 41% | 1021.9 hPa | 0 mm | - | - | - |
| 1777822218 | 20.56° C | 42% | 1021.8 hPa | 0 mm | - | - | - |
| 1777821618 | 20° C | 43% | 1022.2 hPa | 0 mm | - | - | - |
| 1777821018 | 19.44° C | 45% | 1022 hPa | 0 mm | - | - | - |
| 1777820418 | 19.44° C | 45% | 1022.1 hPa | 0 mm | - | - | - |
| 1777819818 | 18.33° C | 47% | 1022.2 hPa | 0 mm | - | - | - |
| 1777819218 | 18.33° C | 48% | 1022.6 hPa | 0 mm | - | - | - |
| 1777818618 | 17.22° C | 51% | 1022.7 hPa | 0 mm | - | - | - |
| 1777818018 | 16.11° C | 54% | 1022.4 hPa | 0 mm | - | - | - |
| 1777817418 | 15.56° C | 56% | 1022.5 hPa | 0 mm | - | - | - |
| 1777816818 | 14.44° C | 60% | 1022.2 hPa | 0 mm | - | - | - |
| 1777816218 | 13.33° C | 61% | 1022.1 hPa | 0 mm | - | - | - |
| 1777815618 | 12.78° C | 64% | 1022.1 hPa | 0 mm | - | - | - |
| 1777815018 | 11.11° C | 68% | 1021.7 hPa | 0 mm | - | - | - |
| 1777814418 | 10° C | 71% | 1021.5 hPa | 0 mm | - | - | - |
| 1777813818 | 9.44° C | 73% | 1021.3 hPa | 0 mm | - | - | - |
* Rain latest hour (hover to see other rain measurements)
** Current wind speed in m/s (hover to see current wind gust speed)